createdAt,value
2017-05-18T00:00:17.982Z,9.18
2017-05-18T00:02:44.669Z,9.64
2017-05-18T00:05:12.106Z,9.42
2017-05-18T00:07:39.586Z,8.92
2017-05-18T00:10:06.289Z,10.00
2017-05-18T00:12:32.989Z,9.18
2017-05-18T00:14:59.733Z,9.84
2017-05-18T00:17:27.223Z,9.58
2017-05-18T00:19:53.919Z,8.72
2017-05-18T00:22:20.614Z,8.74
2017-05-18T00:24:48.091Z,9.84
2017-05-18T00:27:14.787Z,10.56
2017-05-18T00:29:42.226Z,10.38
2017-05-18T00:32:09.698Z,10.46
2017-05-18T00:34:36.394Z,9.50
2017-05-18T00:37:03.895Z,10.70
2017-05-18T00:39:30.849Z,10.00
2017-05-18T00:41:57.589Z,10.40
2017-05-18T00:44:24.361Z,10.10
2017-05-18T00:46:51.056Z,9.96
2017-05-18T00:49:18.491Z,9.18
2017-05-18T00:51:45.961Z,10.22
2017-05-18T00:54:12.648Z,9.84
2017-05-18T00:56:39.378Z,10.28
2017-05-18T00:59:06.159Z,10.72
2017-05-18T01:01:32.914Z,11.00
2017-05-18T01:03:59.637Z,10.32
2017-05-18T01:06:26.433Z,10.26
2017-05-18T01:08:53.169Z,10.34
2017-05-18T01:11:19.854Z,9.70
2017-05-18T01:13:47.279Z,10.16
2017-05-18T01:16:14.738Z,9.62
2017-05-18T01:18:42.162Z,9.14
2017-05-18T01:21:09.632Z,9.72
2017-05-18T01:23:36.323Z,10.84
2017-05-18T01:26:03.048Z,9.70
2017-05-18T01:28:29.786Z,10.60
2017-05-18T01:30:57.285Z,10.04
2017-05-18T01:33:23.954Z,11.08
2017-05-18T01:35:51.419Z,10.82
2017-05-18T01:38:18.106Z,9.84
2017-05-18T01:40:44.790Z,10.94
2017-05-18T01:43:11.544Z,10.88
2017-05-18T01:45:38.233Z,10.04
2017-05-18T01:48:04.930Z,10.40
2017-05-18T01:50:32.402Z,10.96
2017-05-18T01:52:59.111Z,11.88
2017-05-18T01:55:25.843Z,11.16
2017-05-18T01:57:52.525Z,10.30
2017-05-18T02:00:19.254Z,11.00
2017-05-18T02:02:45.942Z,11.16
2017-05-18T02:05:12.617Z,11.16
2017-05-18T02:07:40.091Z,10.74
2017-05-18T02:10:06.781Z,11.24
2017-05-18T02:12:33.478Z,10.58
2017-05-18T02:15:00.216Z,10.62
2017-05-18T02:17:26.901Z,10.70
2017-05-18T02:19:53.594Z,10.72
2017-05-18T02:22:21.062Z,10.82
2017-05-18T02:24:47.754Z,11.84
2017-05-18T02:27:15.180Z,11.46
2017-05-18T02:29:41.931Z,11.78
2017-05-18T02:32:09.398Z,12.00
2017-05-18T02:34:36.080Z,11.60
2017-05-18T02:37:02.801Z,10.22
2017-05-18T02:39:29.541Z,10.16
2017-05-18T02:41:56.962Z,12.40
2017-05-18T02:44:23.657Z,12.26
2017-05-18T02:46:50.386Z,11.00
2017-05-18T02:49:17.065Z,11.00
2017-05-18T02:51:44.503Z,10.20
2017-05-18T02:54:12.005Z,11.24
2017-05-18T02:56:38.689Z,12.68
2017-05-18T02:59:05.381Z,11.24
2017-05-18T03:01:32.123Z,10.74
2017-05-18T03:03:58.817Z,11.14
2017-05-18T03:06:25.504Z,11.52
2017-05-18T03:08:59.341Z,12.26
2017-05-18T03:11:26.769Z,12.02
2017-05-18T03:13:53.457Z,12.88
2017-05-18T03:16:27.079Z,11.78
2017-05-18T03:18:53.792Z,11.36
2017-05-18T03:21:20.488Z,12.12
2017-05-18T03:23:47.965Z,12.32
2017-05-18T03:26:14.684Z,12.34
2017-05-18T03:28:41.401Z,12.24
2017-05-18T03:31:08.129Z,12.12
2017-05-18T03:33:34.823Z,12.44
2017-05-18T03:36:01.553Z,11.74
2017-05-18T03:38:28.238Z,13.72
2017-05-18T03:40:54.925Z,12.62
2017-05-18T03:43:21.650Z,14.04
2017-05-18T03:45:48.350Z,12.98
2017-05-18T03:48:15.073Z,12.82
2017-05-18T03:50:41.816Z,12.98
2017-05-18T03:53:09.266Z,13.10
2017-05-18T03:55:36.721Z,12.50
2017-05-18T03:58:03.448Z,12.14
2017-05-18T04:00:30.181Z,11.86
2017-05-18T04:02:56.872Z,11.22
2017-05-18T04:05:24.345Z,11.00
2017-05-18T04:07:51.052Z,12.02
2017-05-18T04:10:18.485Z,11.84
2017-05-18T04:12:45.958Z,11.62
2017-05-18T04:15:12.658Z,12.44
2017-05-18T04:17:39.417Z,12.98
2017-05-18T04:20:06.105Z,11.38
2017-05-18T04:22:33.562Z,10.90
2017-05-18T04:25:00.302Z,11.26
2017-05-18T04:27:27.786Z,12.90
2017-05-18T04:29:54.538Z,14.12
2017-05-18T04:32:21.235Z,14.50
2017-05-18T04:34:47.929Z,15.14
2017-05-18T04:37:15.429Z,14.06
2017-05-18T04:39:42.113Z,15.14
2017-05-18T04:42:08.837Z,14.76
2017-05-18T04:44:35.528Z,12.48
2017-05-18T04:47:02.225Z,12.18
2017-05-18T04:49:28.943Z,12.50
2017-05-18T04:51:55.654Z,11.98
2017-05-18T04:54:22.407Z,12.24
2017-05-18T04:56:49.121Z,11.12
2017-05-18T04:59:15.865Z,11.66
2017-05-18T05:01:42.549Z,11.32
2017-05-18T05:04:09.238Z,10.86
2017-05-18T05:06:36.705Z,11.44
2017-05-18T05:09:03.429Z,9.80
2017-05-18T05:11:30.139Z,11.12
2017-05-18T05:13:57.574Z,9.68
2017-05-18T05:16:25.059Z,9.74
2017-05-18T05:18:51.834Z,10.34
2017-05-18T05:21:18.525Z,8.88
2017-05-18T05:23:45.261Z,10.48
2017-05-18T05:26:11.978Z,9.22
2017-05-18T05:28:38.666Z,9.72
2017-05-18T05:31:05.429Z,9.16
2017-05-18T05:33:32.113Z,8.66
2017-05-18T05:35:59.548Z,9.50
2017-05-18T05:38:27.005Z,8.68
2017-05-18T05:40:53.697Z,9.06
2017-05-18T05:43:20.429Z,8.36
2017-05-18T05:45:47.132Z,8.14
2017-05-18T05:48:13.868Z,8.84
2017-05-18T05:50:40.571Z,6.92
2017-05-18T05:53:07.298Z,8.28
2017-05-18T05:55:33.985Z,7.04
2017-05-18T05:58:00.668Z,7.18
2017-05-18T06:00:27.398Z,7.60
2017-05-18T06:02:54.099Z,6.94
2017-05-18T06:05:20.825Z,7.68
2017-05-18T06:07:47.534Z,6.32
2017-05-18T06:10:14.255Z,7.24
2017-05-18T06:12:41.037Z,6.40
2017-05-18T06:15:07.716Z,7.58
2017-05-18T06:17:34.408Z,6.54
2017-05-18T06:20:01.867Z,8.06
2017-05-18T06:22:28.566Z,6.72
2017-05-18T06:24:55.304Z,7.16
2017-05-18T06:27:22.006Z,8.22
2017-05-18T06:29:48.745Z,7.48
2017-05-18T06:32:15.445Z,8.00
2017-05-18T06:34:42.165Z,6.60
2017-05-18T06:37:08.898Z,7.26
2017-05-18T06:39:35.593Z,8.54
2017-05-18T06:42:02.281Z,6.88
2017-05-18T06:44:28.993Z,7.56
2017-05-18T06:46:55.692Z,6.98
2017-05-18T06:49:22.425Z,7.18
2017-05-18T06:51:49.129Z,6.22
2017-05-18T06:54:15.891Z,7.30
2017-05-18T06:56:42.570Z,7.56
2017-05-18T06:59:09.298Z,7.00
2017-05-18T07:01:36.001Z,6.80
2017-05-18T07:04:03.422Z,6.30
2017-05-18T07:06:30.142Z,7.44
2017-05-18T07:08:56.862Z,6.90
2017-05-18T07:11:23.585Z,6.86
2017-05-18T07:13:50.327Z,6.72
2017-05-18T07:16:17.009Z,7.72
2017-05-18T07:18:43.697Z,6.48
2017-05-18T07:21:10.415Z,7.38
2017-05-18T07:23:37.886Z,6.98
2017-05-18T07:26:04.576Z,6.74
2017-05-18T07:28:32.030Z,7.52
2017-05-18T07:30:59.488Z,6.82
2017-05-18T07:33:26.174Z,6.76
2017-05-18T07:35:52.885Z,7.00
2017-05-18T07:38:26.524Z,7.24
2017-05-18T07:40:53.245Z,6.82
2017-05-18T07:43:19.936Z,6.94
2017-05-18T07:45:46.656Z,6.98
2017-05-18T07:48:13.409Z,7.06
2017-05-18T07:50:40.094Z,7.40
2017-05-18T07:53:06.834Z,6.58
2017-05-18T07:55:34.617Z,6.72
2017-05-18T07:58:01.318Z,6.90
2017-05-18T08:00:28.795Z,7.38
2017-05-18T08:02:55.496Z,7.38
2017-05-18T08:05:22.237Z,7.04
2017-05-18T08:07:48.922Z,7.10
2017-05-18T08:10:15.609Z,7.08
2017-05-18T08:12:42.320Z,6.90
2017-05-18T08:15:09.001Z,6.60
2017-05-18T08:17:36.523Z,7.18
2017-05-18T08:20:03.217Z,6.78
2017-05-18T08:22:29.919Z,7.00
2017-05-18T08:24:56.654Z,7.00
2017-05-18T08:27:23.365Z,8.36
2017-05-18T08:29:50.133Z,7.10
2017-05-18T08:32:16.821Z,6.66
2017-05-18T08:34:43.513Z,7.24
2017-05-18T08:37:10.225Z,7.08
2017-05-18T08:39:36.938Z,6.96
2017-05-18T08:42:03.630Z,7.22
2017-05-18T08:44:30.374Z,7.02
2017-05-18T08:46:57.058Z,7.02
2017-05-18T08:49:23.746Z,7.46
2017-05-18T08:51:51.197Z,7.30
2017-05-18T08:54:17.885Z,6.96
2017-05-18T08:56:44.594Z,7.62
2017-05-18T08:59:11.282Z,7.60
2017-05-18T09:01:38.017Z,7.14
2017-05-18T09:04:04.742Z,7.38
2017-05-18T09:06:31.429Z,7.60
2017-05-18T09:08:58.923Z,7.56
2017-05-18T09:11:25.653Z,6.94
2017-05-18T09:13:52.341Z,6.88
2017-05-18T09:16:19.810Z,6.98
2017-05-18T09:18:46.501Z,7.00
2017-05-18T09:21:13.931Z,7.96
2017-05-18T09:23:41.405Z,7.26
2017-05-18T09:26:08.130Z,7.54
2017-05-18T09:28:35.669Z,7.20
2017-05-18T09:31:02.421Z,7.48
2017-05-18T09:33:29.113Z,7.50
2017-05-18T09:35:56.580Z,6.98
2017-05-18T09:38:23.270Z,6.72
2017-05-18T09:40:49.957Z,6.72
2017-05-18T09:43:16.709Z,8.64
2017-05-18T09:45:43.393Z,6.70
2017-05-18T09:48:10.115Z,7.50
2017-05-18T09:50:36.872Z,7.68
2017-05-18T09:53:03.585Z,6.38
2017-05-18T09:55:30.269Z,8.28
2017-05-18T09:57:57.729Z,8.00
2017-05-18T10:00:24.433Z,7.80
2017-05-18T10:02:51.861Z,6.84
2017-05-18T10:05:18.590Z,7.66
2017-05-18T10:07:45.276Z,6.62
2017-05-18T10:10:11.957Z,6.72
2017-05-18T10:12:39.437Z,6.74
2017-05-18T10:15:06.126Z,7.04
2017-05-18T10:17:32.821Z,6.80
2017-05-18T10:19:59.550Z,6.28
2017-05-18T10:22:26.283Z,8.12
2017-05-18T10:24:52.964Z,7.02
2017-05-18T10:27:19.649Z,8.04
2017-05-18T10:29:46.405Z,6.60
2017-05-18T10:32:13.834Z,7.44
2017-05-18T10:34:41.273Z,7.04
2017-05-18T10:37:07.989Z,6.96
2017-05-18T10:39:34.695Z,7.16
2017-05-18T10:42:01.437Z,6.48
2017-05-18T10:44:28.143Z,7.22
2017-05-18T10:46:54.829Z,7.44
2017-05-18T10:49:21.539Z,7.08
2017-05-18T10:51:48.975Z,7.62
2017-05-18T10:54:16.497Z,6.06
2017-05-18T10:56:43.181Z,7.60
2017-05-18T10:59:09.905Z,6.88
2017-05-18T11:01:36.590Z,7.64
2017-05-18T11:04:04.053Z,7.50
2017-05-18T11:06:30.746Z,7.58
2017-05-18T11:08:57.450Z,7.30
2017-05-18T11:11:24.136Z,7.06
2017-05-18T11:13:50.920Z,7.42
2017-05-18T11:16:17.620Z,7.16
2017-05-18T11:18:44.338Z,7.10
2017-05-18T11:21:11.798Z,6.40
2017-05-18T11:23:38.526Z,7.10
2017-05-18T11:26:05.217Z,6.64
2017-05-18T11:28:31.915Z,7.26
2017-05-18T11:30:58.678Z,7.80
2017-05-18T11:33:26.123Z,7.72
2017-05-18T11:35:53.556Z,7.76
2017-05-18T11:38:20.270Z,7.08
2017-05-18T11:40:46.961Z,7.12
2017-05-18T11:43:13.672Z,6.40
2017-05-18T11:45:40.406Z,7.56
2017-05-18T11:48:07.090Z,7.22
2017-05-18T11:50:34.564Z,8.14
2017-05-18T11:53:01.278Z,6.78
2017-05-18T11:55:28.029Z,7.50
2017-05-18T11:57:54.754Z,8.24
2017-05-18T12:00:21.445Z,7.78
2017-05-18T12:02:48.873Z,8.36
2017-05-18T12:05:16.329Z,6.70
2017-05-18T12:07:43.800Z,6.76
2017-05-18T12:10:10.521Z,6.50
2017-05-18T12:12:37.223Z,9.60
2017-05-18T12:15:04.669Z,7.44
2017-05-18T12:17:31.403Z,6.58
2017-05-18T12:19:58.098Z,7.10
2017-05-18T12:22:25.587Z,7.50
2017-05-18T12:24:52.277Z,7.40
2017-05-18T12:27:19.699Z,7.38
2017-05-18T12:29:46.453Z,7.66
2017-05-18T12:32:13.872Z,8.22
2017-05-18T12:34:40.549Z,7.68
2017-05-18T12:37:07.269Z,8.96
2017-05-18T12:39:33.982Z,8.02
2017-05-18T12:42:00.698Z,8.80
2017-05-18T12:44:28.187Z,8.06
2017-05-18T12:46:54.882Z,8.50
2017-05-18T12:49:21.601Z,9.40
2017-05-18T12:51:48.310Z,10.06
2017-05-18T12:54:15.733Z,11.00
2017-05-18T12:56:42.452Z,9.76
2017-05-18T12:59:09.150Z,10.64
2017-05-18T13:01:35.890Z,9.86
2017-05-18T13:04:02.591Z,9.64
2017-05-18T13:06:29.313Z,9.32
2017-05-18T13:08:56.029Z,9.24
2017-05-18T13:11:22.721Z,10.38
2017-05-18T13:13:49.449Z,10.90
2017-05-18T13:16:16.890Z,10.14
2017-05-18T13:18:43.858Z,9.34
2017-05-18T13:21:10.583Z,10.34
2017-05-18T13:23:37.274Z,10.12
2017-05-18T13:26:04.747Z,10.78
2017-05-18T13:28:31.487Z,10.88
2017-05-18T13:30:58.202Z,10.98
2017-05-18T13:33:24.977Z,11.42
2017-05-18T13:35:51.684Z,10.30
2017-05-18T13:38:18.386Z,10.58
2017-05-18T13:40:45.143Z,11.66
2017-05-18T13:43:11.828Z,11.54
2017-05-18T13:45:38.525Z,12.38
2017-05-18T13:48:06.029Z,12.66
2017-05-18T13:50:32.725Z,12.60
2017-05-18T13:52:59.437Z,11.92
2017-05-18T13:55:26.154Z,12.26
2017-05-18T13:57:53.582Z,12.58
2017-05-18T14:00:20.321Z,12.42
2017-05-18T14:02:47.755Z,12.16
2017-05-18T14:05:15.187Z,11.18
2017-05-18T14:07:41.901Z,11.06
2017-05-18T14:10:08.582Z,11.26
2017-05-18T14:12:35.295Z,12.00
2017-05-18T14:15:02.045Z,12.22
2017-05-18T14:17:28.754Z,12.38
2017-05-18T14:19:55.448Z,10.84
2017-05-18T14:22:22.218Z,10.76
2017-05-18T14:24:48.970Z,11.06
2017-05-18T14:27:15.651Z,12.30
2017-05-18T14:29:42.388Z,11.28
2017-05-18T14:32:09.137Z,11.62
2017-05-18T14:34:35.837Z,12.22
2017-05-18T14:37:02.547Z,11.18
2017-05-18T14:39:29.319Z,11.70
2017-05-18T14:41:56.008Z,11.20
2017-05-18T14:44:22.742Z,12.26
2017-05-18T14:46:49.434Z,12.05
2017-05-18T14:49:16.878Z,11.70
2017-05-18T14:51:44.370Z,15.53
2017-05-18T14:54:11.074Z,11.32
2017-05-18T14:56:37.757Z,11.32
2017-05-18T14:59:04.589Z,11.12
2017-05-18T15:01:32.089Z,11.30
2017-05-18T15:03:58.847Z,10.62
2017-05-18T15:06:25.620Z,11.32
2017-05-18T15:08:52.312Z,11.16
2017-05-18T15:11:18.997Z,9.74
2017-05-18T15:13:45.714Z,9.72
2017-05-18T15:16:12.429Z,10.12
2017-05-18T15:18:39.116Z,9.62
2017-05-18T15:21:05.848Z,9.30
2017-05-18T15:23:33.310Z,9.68
2017-05-18T15:26:00.057Z,9.24
2017-05-18T15:28:26.768Z,8.12
2017-05-18T15:30:53.490Z,8.30
2017-05-18T15:33:20.262Z,7.46
2017-05-18T15:35:46.959Z,6.72
2017-05-18T15:38:13.650Z,7.04
2017-05-18T15:40:41.129Z,6.90
2017-05-18T15:43:07.826Z,6.72
2017-05-18T15:45:35.269Z,6.50
2017-05-18T15:48:02.757Z,6.74
2017-05-18T15:50:29.486Z,6.18
2017-05-18T15:52:56.214Z,6.16
2017-05-18T15:55:22.997Z,6.10
2017-05-18T15:57:49.686Z,6.48
2017-05-18T16:00:16.413Z,6.10
2017-05-18T16:02:43.116Z,6.12
2017-05-18T16:05:09.805Z,5.44
2017-05-18T16:07:36.537Z,6.30
2017-05-18T16:10:03.293Z,6.42
2017-05-18T16:12:30.007Z,6.02
2017-05-18T16:14:56.700Z,6.18
2017-05-18T16:17:24.177Z,6.22
2017-05-18T16:19:50.865Z,6.32
2017-05-18T16:22:18.293Z,5.96
2017-05-18T16:24:45.762Z,6.16
2017-05-18T16:27:12.456Z,5.44
2017-05-18T16:29:39.144Z,5.72
2017-05-18T16:32:05.919Z,5.80
2017-05-18T16:34:33.441Z,5.36
2017-05-18T16:37:00.158Z,5.74
2017-05-18T16:39:26.879Z,5.66
2017-05-18T16:41:53.623Z,3.85
2017-05-18T16:44:20.322Z,5.78
2017-05-18T16:46:47.249Z,5.70
2017-05-18T16:49:14.017Z,5.76
2017-05-18T16:51:40.710Z,5.86
2017-05-18T16:54:07.421Z,5.84
2017-05-18T16:56:34.161Z,4.78
2017-05-18T16:59:00.894Z,4.80
2017-05-18T17:01:27.659Z,4.96
2017-05-18T17:03:55.147Z,6.26
2017-05-18T17:06:21.844Z,5.10
2017-05-18T17:08:48.581Z,5.56
2017-05-18T17:11:15.268Z,5.16
2017-05-18T17:13:41.952Z,5.26
2017-05-18T17:16:08.721Z,6.38
2017-05-18T17:18:36.173Z,5.18
2017-05-18T17:21:03.637Z,5.00
2017-05-18T17:23:30.337Z,4.72
2017-05-18T17:25:57.111Z,5.26
2017-05-18T17:28:24.545Z,5.40
2017-05-18T17:30:51.235Z,4.70
2017-05-18T17:33:17.966Z,4.66
2017-05-18T17:35:44.661Z,4.78
2017-05-18T17:38:11.346Z,5.58
2017-05-18T17:40:38.097Z,5.52
2017-05-18T17:43:04.802Z,5.56
2017-05-18T17:45:32.274Z,5.60
2017-05-18T17:47:59.067Z,6.20
2017-05-18T17:50:25.849Z,5.52
2017-05-18T17:52:52.537Z,5.82
2017-05-18T17:55:19.982Z,6.34
2017-05-18T17:57:47.452Z,5.42
2017-05-18T18:00:14.149Z,6.46
2017-05-18T18:02:41.605Z,5.62
2017-05-18T18:05:08.345Z,5.68
2017-05-18T18:07:35.030Z,5.60
2017-05-18T18:10:02.477Z,6.86
2017-05-18T18:12:29.966Z,5.90
2017-05-18T18:14:56.747Z,5.70
2017-05-18T18:17:24.193Z,5.74
2017-05-18T18:19:51.616Z,5.82
2017-05-18T18:22:18.356Z,6.12
2017-05-18T18:24:45.120Z,5.86
2017-05-18T18:27:11.801Z,6.42
2017-05-18T18:29:38.529Z,6.30
2017-05-18T18:32:05.241Z,6.48
2017-05-18T18:34:31.986Z,6.28
2017-05-18T18:36:58.737Z,6.62
2017-05-18T18:39:25.458Z,7.10
2017-05-18T18:41:52.180Z,6.76
2017-05-18T18:44:18.867Z,6.28
2017-05-18T18:46:45.557Z,6.66
2017-05-18T18:49:12.278Z,6.84
2017-05-18T18:51:38.990Z,6.22
2017-05-18T18:54:05.674Z,7.56
2017-05-18T18:56:32.420Z,6.64
2017-05-18T18:58:59.149Z,6.48
2017-05-18T19:01:25.849Z,6.26
2017-05-18T19:03:52.649Z,7.58
2017-05-18T19:06:19.343Z,6.64
2017-05-18T19:08:46.025Z,6.74
2017-05-18T19:11:12.745Z,6.20
2017-05-18T19:13:39.437Z,6.20
2017-05-18T19:16:06.121Z,6.56
2017-05-18T19:18:32.946Z,6.40
2017-05-18T19:20:59.714Z,6.98
2017-05-18T19:23:26.486Z,7.16
2017-05-18T19:25:53.204Z,6.94
2017-05-18T19:28:19.901Z,6.42
2017-05-18T19:30:46.640Z,7.02
2017-05-18T19:33:14.078Z,8.00
2017-05-18T19:35:41.513Z,6.56
2017-05-18T19:38:08.277Z,6.54
2017-05-18T19:40:34.970Z,7.76
2017-05-18T19:43:02.396Z,6.56
2017-05-18T19:45:29.152Z,8.92
2017-05-18T19:47:56.586Z,6.44
2017-05-18T19:50:24.022Z,7.38
2017-05-18T19:52:50.729Z,7.88
2017-05-18T19:55:17.416Z,7.66
2017-05-18T19:57:44.163Z,7.50
2017-05-18T20:00:10.861Z,7.18
2017-05-18T20:02:37.554Z,7.94
2017-05-18T20:05:05.013Z,7.66
2017-05-18T20:07:31.737Z,7.64
2017-05-18T20:09:59.252Z,8.36
2017-05-18T20:12:26.333Z,7.26
2017-05-18T20:14:53.030Z,8.18
2017-05-18T20:17:20.509Z,7.78
2017-05-18T20:19:47.205Z,7.96
2017-05-18T20:22:14.673Z,8.58
2017-05-18T20:24:41.361Z,8.90
2017-05-18T20:27:08.825Z,9.84
2017-05-18T20:29:35.517Z,10.40
2017-05-18T20:32:02.265Z,10.96
2017-05-18T20:34:29.761Z,10.62
2017-05-18T20:36:56.451Z,11.82
2017-05-18T20:39:23.190Z,10.12
2017-05-18T20:41:49.872Z,9.62
2017-05-18T20:44:16.589Z,9.26
2017-05-18T20:46:43.286Z,9.04
2017-05-18T20:49:10.297Z,9.72
2017-05-18T20:51:36.993Z,9.42
2017-05-18T20:54:04.417Z,8.32
2017-05-18T20:56:31.149Z,9.34
2017-05-18T20:58:57.854Z,9.20
2017-05-18T21:01:24.544Z,9.24
2017-05-18T21:03:51.269Z,9.40
2017-05-18T21:06:17.962Z,8.62
2017-05-18T21:08:45.448Z,9.40
2017-05-18T21:11:12.432Z,9.72
2017-05-18T21:13:39.865Z,10.68
2017-05-18T21:16:06.585Z,9.74
2017-05-18T21:18:33.309Z,9.98
2017-05-18T21:21:00.041Z,9.68
2017-05-18T21:23:26.721Z,9.92
2017-05-18T21:25:53.458Z,9.74
2017-05-18T21:28:20.145Z,9.96
2017-05-18T21:30:46.834Z,9.48
2017-05-18T21:33:13.577Z,10.40
2017-05-18T21:35:41.007Z,11.74
2017-05-18T21:38:07.717Z,10.74
2017-05-18T21:40:34.458Z,9.12
2017-05-18T21:43:01.275Z,9.78
2017-05-18T21:45:27.996Z,9.66
2017-05-18T21:47:54.710Z,9.96
2017-05-18T21:50:21.396Z,9.98
2017-05-18T21:52:48.106Z,9.06
2017-05-18T21:55:15.533Z,9.40
2017-05-18T21:57:42.250Z,10.18
2017-05-18T22:00:08.970Z,10.12
2017-05-18T22:02:35.681Z,9.64
2017-05-18T22:05:02.430Z,9.34
2017-05-18T22:07:29.143Z,9.16
2017-05-18T22:09:55.845Z,10.20
2017-05-18T22:12:22.581Z,9.00
2017-05-18T22:14:49.273Z,9.10
2017-05-18T22:17:15.962Z,9.90
2017-05-18T22:19:42.676Z,9.88
2017-05-18T22:22:09.366Z,9.14
2017-05-18T22:24:36.089Z,9.98
2017-05-18T22:27:02.783Z,10.12
2017-05-18T22:29:37.401Z,9.58
2017-05-18T22:32:04.094Z,10.08
2017-05-18T22:34:30.818Z,10.24
2017-05-18T22:36:57.638Z,10.18
2017-05-18T22:39:24.753Z,9.76
2017-05-18T22:41:51.441Z,9.92
2017-05-18T22:44:18.860Z,10.92
2017-05-18T22:46:45.571Z,9.70
2017-05-18T22:49:12.270Z,8.86
2017-05-18T22:51:38.992Z,9.64
2017-05-18T22:54:05.725Z,10.00
2017-05-18T22:56:32.444Z,10.58
2017-05-18T22:58:59.147Z,9.20
2017-05-18T23:01:25.889Z,8.76
2017-05-18T23:03:52.574Z,9.48
2017-05-18T23:06:20.000Z,10.34
2017-05-18T23:08:46.720Z,9.34
2017-05-18T23:11:13.405Z,9.08
2017-05-18T23:13:40.158Z,9.86
2017-05-18T23:16:06.844Z,10.20
2017-05-18T23:18:33.561Z,9.04
2017-05-18T23:21:00.313Z,9.28
2017-05-18T23:23:26.996Z,9.12
2017-05-18T23:25:54.473Z,9.74
2017-05-18T23:28:21.157Z,10.04
2017-05-18T23:30:47.845Z,9.02
2017-05-18T23:33:14.565Z,8.82
2017-05-18T23:35:41.253Z,10.02
2017-05-18T23:38:08.009Z,9.62
2017-05-18T23:40:34.716Z,9.80
2017-05-18T23:43:01.474Z,9.00
2017-05-18T23:45:28.179Z,10.26
2017-05-18T23:47:54.861Z,9.20
2017-05-18T23:50:21.611Z,8.48
2017-05-18T23:52:48.298Z,9.26
2017-05-18T23:55:14.995Z,9.74
2017-05-18T23:57:41.737Z,9.06
